createdAt,value
2022-08-19T00:00:39.197Z,39.78
2022-08-19T00:01:39.162Z,39.66
2022-08-19T00:02:39.140Z,40.12
2022-08-19T00:03:40.147Z,46.35
2022-08-19T00:04:39.179Z,39.40
2022-08-19T00:05:39.174Z,40.54
2022-08-19T00:06:39.255Z,38.73
2022-08-19T00:07:39.102Z,44.84
2022-08-19T00:08:39.115Z,41.23
2022-08-19T00:09:39.105Z,39.73
2022-08-19T00:10:39.108Z,39.42
2022-08-19T00:11:39.094Z,39.60
2022-08-19T00:12:43.865Z,42.52
2022-08-19T00:13:40.085Z,40.97
2022-08-19T00:14:39.069Z,39.66
2022-08-19T00:15:39.095Z,40.76
2022-08-19T00:16:39.055Z,41.70
2022-08-19T00:17:41.916Z,45.08
2022-08-19T00:18:39.029Z,39.40
2022-08-19T00:19:39.035Z,43.09
2022-08-19T00:20:39.023Z,41.68
2022-08-19T00:21:39.040Z,40.96
2022-08-19T00:22:39.047Z,39.21
2022-08-19T00:23:39.012Z,39.68
2022-08-19T00:24:38.988Z,40.23
2022-08-19T00:25:39.017Z,39.34
2022-08-19T00:26:38.992Z,39.15
2022-08-19T00:27:39.003Z,39.45
2022-08-19T00:28:38.963Z,37.95
2022-08-19T00:29:38.942Z,42.16
2022-08-19T00:30:38.968Z,40.61
2022-08-19T00:31:38.952Z,38.15
2022-08-19T00:32:38.992Z,37.85
2022-08-19T00:33:38.938Z,38.21
2022-08-19T00:34:38.954Z,38.19
2022-08-19T00:35:38.924Z,40.81
2022-08-19T00:36:38.915Z,40.41
2022-08-19T00:37:38.946Z,36.81
2022-08-19T00:38:38.897Z,41.16
2022-08-19T00:39:38.956Z,39.83
2022-08-19T00:40:38.891Z,38.45
2022-08-19T00:41:38.959Z,37.32
2022-08-19T00:42:38.995Z,36.86
2022-08-19T00:43:38.887Z,36.99
2022-08-19T00:44:38.868Z,36.38
2022-08-19T00:45:38.911Z,37.81
2022-08-19T00:46:38.861Z,37.39
2022-08-19T00:47:38.831Z,37.11
2022-08-19T00:48:38.859Z,36.44
2022-08-19T00:49:38.876Z,35.21
2022-08-19T00:50:38.844Z,35.21
2022-08-19T00:51:39.827Z,35.63
2022-08-19T00:52:38.903Z,38.81
2022-08-19T00:53:38.835Z,40.21
2022-08-19T00:54:38.824Z,38.39
2022-08-19T00:55:38.797Z,36.07
2022-08-19T00:56:38.793Z,35.65
2022-08-19T00:57:38.843Z,40.55
2022-08-19T00:58:38.797Z,35.83
2022-08-19T00:59:56.468Z,35.57
2022-08-19T01:00:39.799Z,35.19
2022-08-19T01:01:38.845Z,34.75
2022-08-19T01:02:38.764Z,35.64
2022-08-19T01:03:55.164Z,36.56
2022-08-19T01:04:39.774Z,35.75
2022-08-19T01:05:38.797Z,34.98
2022-08-19T01:06:38.738Z,35.64
2022-08-19T01:07:39.140Z,36.14
2022-08-19T01:08:38.718Z,34.71
2022-08-19T01:09:38.756Z,34.37
2022-08-19T01:10:38.757Z,34.07
2022-08-19T01:11:38.693Z,34.34
2022-08-19T01:12:38.764Z,33.98
2022-08-19T01:13:49.236Z,37.43
2022-08-19T01:14:39.716Z,34.75
2022-08-19T01:15:38.701Z,34.22
2022-08-19T01:16:38.765Z,34.63
2022-08-19T01:17:38.723Z,36.70
2022-08-19T01:18:38.684Z,37.02
2022-08-19T01:19:43.373Z,37.55
2022-08-19T01:20:39.672Z,36.86
2022-08-19T01:21:38.661Z,37.08
2022-08-19T01:22:38.657Z,38.63
2022-08-19T01:23:38.617Z,37.91
2022-08-19T01:24:42.264Z,35.69
2022-08-19T01:25:39.667Z,37.19
2022-08-19T01:26:38.695Z,37.43
2022-08-19T01:27:42.961Z,37.94
2022-08-19T01:28:40.154Z,37.34
2022-08-19T01:29:38.589Z,37.20
2022-08-19T01:30:38.604Z,36.86
2022-08-19T01:31:38.572Z,37.27
2022-08-19T01:32:38.582Z,38.47
2022-08-19T01:33:38.581Z,38.35
2022-08-19T01:34:38.545Z,37.81
2022-08-19T01:35:38.572Z,38.53
2022-08-19T01:36:38.556Z,38.05
2022-08-19T01:37:38.589Z,38.64
2022-08-19T01:38:44.085Z,37.36
2022-08-19T01:39:39.669Z,36.17
2022-08-19T01:40:38.523Z,35.29
2022-08-19T01:41:38.536Z,41.90
2022-08-19T01:42:38.526Z,36.74
2022-08-19T01:43:38.501Z,35.14
2022-08-19T01:44:39.505Z,36.78
2022-08-19T01:45:38.473Z,33.49
2022-08-19T01:46:38.544Z,32.81
2022-08-19T01:47:38.489Z,32.74
2022-08-19T01:48:38.483Z,33.34
2022-08-19T01:49:38.441Z,33.16
2022-08-19T01:50:38.435Z,33.11
2022-08-19T01:51:40.185Z,34.62
2022-08-19T01:52:38.444Z,34.84
2022-08-19T01:53:38.556Z,33.54
2022-08-19T01:54:38.525Z,35.03
2022-08-19T01:55:40.623Z,34.60
2022-08-19T01:56:38.425Z,33.71
2022-08-19T01:57:38.463Z,38.78
2022-08-19T01:58:38.387Z,33.44
2022-08-19T01:59:38.430Z,33.41
2022-08-19T02:00:38.508Z,41.98
2022-08-19T02:01:38.480Z,56.90
2022-08-19T02:02:38.372Z,56.41
2022-08-19T02:03:38.385Z,56.62
2022-08-19T02:04:38.440Z,56.58
2022-08-19T02:05:38.358Z,57.17
2022-08-19T02:06:38.389Z,47.89
2022-08-19T02:07:38.406Z,35.77
2022-08-19T02:08:38.329Z,33.22
2022-08-19T02:09:38.341Z,38.83
2022-08-19T02:10:38.341Z,33.90
2022-08-19T02:11:38.346Z,34.07
2022-08-19T02:12:38.324Z,32.97
2022-08-19T02:13:38.322Z,32.23
2022-08-19T02:14:38.347Z,32.84
2022-08-19T02:15:38.304Z,32.56
2022-08-19T02:16:38.287Z,32.83
2022-08-19T02:17:38.296Z,32.80
2022-08-19T02:18:38.262Z,33.89
2022-08-19T02:19:38.991Z,32.68
2022-08-19T02:20:38.289Z,33.40
2022-08-19T02:21:38.250Z,33.35
2022-08-19T02:22:38.284Z,38.16
2022-08-19T02:23:38.253Z,34.48
2022-08-19T02:24:38.225Z,32.24
2022-08-19T02:25:38.262Z,36.24
2022-08-19T02:26:38.238Z,33.10
2022-08-19T02:27:38.256Z,32.13
2022-08-19T02:28:38.248Z,32.45
2022-08-19T02:29:38.214Z,31.47
2022-08-19T02:30:38.197Z,32.72
2022-08-19T02:31:38.180Z,37.16
2022-08-19T02:32:44.890Z,39.90
2022-08-19T02:33:39.204Z,42.35
2022-08-19T02:34:38.190Z,35.61
2022-08-19T02:35:38.161Z,32.89
2022-08-19T02:36:42.515Z,32.32
2022-08-19T02:37:38.186Z,31.13
2022-08-19T02:38:38.181Z,32.10
2022-08-19T02:39:38.182Z,41.08
2022-08-19T02:40:38.114Z,37.54
2022-08-19T02:41:38.146Z,38.88
2022-08-19T02:42:38.114Z,37.89
2022-08-19T02:43:38.185Z,37.53
2022-08-19T02:44:38.109Z,42.34
2022-08-19T02:45:40.430Z,40.54
2022-08-19T02:46:38.119Z,41.77
2022-08-19T02:47:38.125Z,39.12
2022-08-19T02:48:38.146Z,39.53
2022-08-19T02:49:38.091Z,35.01
2022-08-19T02:50:38.055Z,33.22
2022-08-19T02:51:38.073Z,34.14
2022-08-19T02:52:38.050Z,37.50
2022-08-19T02:53:38.093Z,37.28
2022-08-19T02:54:38.027Z,43.65
2022-08-19T02:55:45.937Z,40.52
2022-08-19T02:56:39.026Z,35.45
2022-08-19T02:57:38.005Z,36.69
2022-08-19T02:58:38.061Z,33.52
2022-08-19T02:59:38.011Z,34.96
2022-08-19T03:00:42.076Z,34.33
2022-08-19T03:01:38.038Z,33.86
2022-08-19T03:02:37.981Z,34.45
2022-08-19T03:03:37.971Z,38.86
2022-08-19T03:04:38.039Z,37.74
2022-08-19T03:05:46.794Z,37.84
2022-08-19T03:06:38.996Z,35.80
2022-08-19T03:07:38.052Z,33.47
2022-08-19T03:08:37.951Z,32.81
2022-08-19T03:09:37.963Z,33.23
2022-08-19T03:10:37.937Z,39.10
2022-08-19T03:11:37.969Z,41.55
2022-08-19T03:12:37.957Z,37.47
2022-08-19T03:13:37.962Z,38.64
2022-08-19T03:14:37.955Z,40.61
2022-08-19T03:15:37.946Z,41.31
2022-08-19T03:16:37.950Z,44.59
2022-08-19T03:17:37.919Z,42.15
2022-08-19T03:18:37.924Z,45.99
2022-08-19T03:19:37.905Z,37.60
2022-08-19T03:20:37.951Z,38.92
2022-08-19T03:21:37.905Z,41.60
2022-08-19T03:22:37.905Z,41.74
2022-08-19T03:23:37.909Z,43.47
2022-08-19T03:24:37.860Z,40.11
2022-08-19T03:25:37.844Z,33.95
2022-08-19T03:26:37.876Z,40.38
2022-08-19T03:27:37.882Z,36.10
2022-08-19T03:28:37.885Z,42.11
2022-08-19T03:29:42.984Z,41.23
2022-08-19T03:30:38.939Z,43.93
2022-08-19T03:31:44.564Z,44.74
2022-08-19T03:32:45.266Z,42.93
2022-08-19T03:33:38.805Z,40.85
2022-08-19T03:34:37.827Z,37.73
2022-08-19T03:35:37.786Z,38.12
2022-08-19T03:36:37.787Z,43.83
2022-08-19T03:37:37.759Z,37.15
2022-08-19T03:38:37.767Z,48.98
2022-08-19T03:39:37.817Z,43.94
2022-08-19T03:40:37.763Z,43.67
2022-08-19T03:41:45.011Z,39.85
2022-08-19T03:42:49.278Z,34.19
2022-08-19T03:43:38.735Z,39.80
2022-08-19T03:44:37.782Z,39.44
2022-08-19T03:45:37.746Z,39.88
2022-08-19T03:46:37.713Z,44.52
2022-08-19T03:47:37.729Z,45.50
2022-08-19T03:48:37.727Z,39.98
2022-08-19T03:49:37.701Z,40.05
2022-08-19T03:50:37.700Z,45.34
2022-08-19T03:51:37.701Z,42.39
2022-08-19T03:52:37.667Z,41.31
2022-08-19T03:53:37.675Z,43.62
2022-08-19T03:54:37.670Z,39.97
2022-08-19T03:55:37.652Z,46.33
2022-08-19T03:56:37.644Z,37.15
2022-08-19T03:57:37.652Z,45.94
2022-08-19T03:58:37.645Z,39.40
2022-08-19T03:59:37.631Z,42.66
2022-08-19T04:00:37.656Z,37.49
2022-08-19T04:01:37.672Z,39.15
2022-08-19T04:02:37.739Z,35.87
2022-08-19T04:03:37.587Z,37.65
2022-08-19T04:04:37.610Z,39.93
2022-08-19T04:05:37.584Z,47.01
2022-08-19T04:06:39.502Z,47.16
2022-08-19T04:07:37.758Z,44.92
2022-08-19T04:08:37.581Z,42.43
2022-08-19T04:09:37.621Z,42.47
2022-08-19T04:10:37.601Z,46.06
2022-08-19T04:11:43.261Z,40.51
2022-08-19T04:12:38.643Z,41.29
2022-08-19T04:13:37.617Z,33.73
2022-08-19T04:14:37.547Z,41.85
2022-08-19T04:15:37.526Z,48.53
2022-08-19T04:16:37.510Z,36.92
2022-08-19T04:17:37.531Z,37.99
2022-08-19T04:18:37.525Z,41.56
2022-08-19T04:19:37.557Z,41.40
2022-08-19T04:20:37.512Z,45.10
2022-08-19T04:21:37.491Z,39.68
2022-08-19T04:22:37.476Z,44.67
2022-08-19T04:23:37.503Z,43.24
2022-08-19T04:24:38.491Z,45.93
2022-08-19T04:25:37.476Z,42.78
2022-08-19T04:26:37.448Z,48.06
2022-08-19T04:27:37.469Z,50.08
2022-08-19T04:28:37.443Z,47.89
2022-08-19T04:29:37.549Z,40.85
2022-08-19T04:30:37.433Z,43.74
2022-08-19T04:31:37.440Z,46.84
2022-08-19T04:32:37.410Z,45.56
2022-08-19T04:33:37.400Z,45.94
2022-08-19T04:34:37.434Z,49.38
2022-08-19T04:35:38.387Z,48.61
2022-08-19T04:36:37.414Z,47.42
2022-08-19T04:37:37.381Z,42.41
2022-08-19T04:38:37.475Z,46.83
2022-08-19T04:39:37.459Z,47.17
2022-08-19T04:40:37.388Z,44.35
2022-08-19T04:41:37.396Z,44.63
2022-08-19T04:42:37.331Z,48.23
2022-08-19T04:43:37.366Z,43.20
2022-08-19T04:44:44.049Z,47.20
2022-08-19T04:45:43.450Z,47.21
2022-08-19T04:46:39.880Z,48.97
2022-08-19T04:47:47.672Z,44.25
2022-08-19T04:48:38.303Z,47.95
2022-08-19T04:49:38.351Z,46.19
2022-08-19T04:50:37.286Z,49.95
2022-08-19T04:51:37.311Z,48.55
2022-08-19T04:52:37.329Z,48.22
2022-08-19T04:53:37.809Z,46.44
2022-08-19T04:54:39.250Z,45.08
2022-08-19T04:55:38.388Z,40.23
2022-08-19T04:56:38.249Z,47.28
2022-08-19T04:57:37.317Z,47.36
2022-08-19T04:58:37.336Z,43.40
2022-08-19T04:59:37.269Z,41.93
2022-08-19T05:00:37.743Z,46.78
2022-08-19T05:01:37.280Z,50.43
2022-08-19T05:02:37.208Z,55.32
2022-08-19T05:03:37.252Z,55.66
2022-08-19T05:04:37.243Z,48.77
2022-08-19T05:05:45.359Z,43.05
2022-08-19T05:06:38.196Z,42.29
2022-08-19T05:07:37.186Z,45.87
2022-08-19T05:08:37.215Z,47.25
2022-08-19T05:09:55.612Z,49.56
2022-08-19T05:10:38.204Z,47.23
2022-08-19T05:11:37.183Z,43.34
2022-08-19T05:12:37.152Z,48.22
2022-08-19T05:13:37.181Z,47.32
2022-08-19T05:14:37.158Z,48.11
2022-08-19T05:15:37.143Z,46.76
2022-08-19T05:16:37.141Z,51.05
2022-08-19T05:17:38.995Z,48.23
2022-08-19T05:18:38.124Z,46.25
2022-08-19T05:19:37.138Z,46.89
2022-08-19T05:20:37.098Z,45.92
2022-08-19T05:21:37.101Z,44.83
2022-08-19T05:22:37.147Z,44.87
2022-08-19T05:23:37.066Z,43.44
2022-08-19T05:24:47.463Z,44.50
2022-08-19T05:25:39.137Z,47.56
2022-08-19T05:26:37.073Z,47.59
2022-08-19T05:27:37.059Z,44.71
2022-08-19T05:28:37.056Z,44.78
2022-08-19T05:29:37.086Z,45.58
2022-08-19T05:30:47.272Z,41.92
2022-08-19T05:31:39.097Z,44.99
2022-08-19T05:32:37.065Z,48.90
2022-08-19T05:33:37.117Z,49.42
2022-08-19T05:34:36.999Z,47.22
2022-08-19T05:35:37.006Z,45.95
2022-08-19T05:36:37.031Z,47.16
2022-08-19T05:37:37.014Z,48.66
2022-08-19T05:38:37.009Z,45.51
2022-08-19T05:39:37.016Z,43.26
2022-08-19T05:40:36.998Z,47.63
2022-08-19T05:41:36.943Z,42.62
2022-08-19T05:42:36.960Z,47.84
2022-08-19T05:43:36.976Z,45.29
2022-08-19T05:44:36.984Z,45.89
2022-08-19T05:45:36.976Z,51.20
2022-08-19T05:46:36.965Z,45.37
2022-08-19T05:47:40.615Z,43.91
2022-08-19T05:48:37.915Z,45.91
2022-08-19T05:49:36.918Z,45.81
2022-08-19T05:50:37.038Z,46.98
2022-08-19T05:51:36.945Z,45.83
2022-08-19T05:52:36.917Z,50.01
2022-08-19T05:53:36.914Z,43.27
2022-08-19T05:54:36.896Z,45.16
2022-08-19T05:55:36.895Z,46.16
2022-08-19T05:56:36.925Z,49.83
2022-08-19T05:57:36.909Z,44.57
2022-08-19T05:58:36.879Z,46.09
2022-08-19T05:59:36.867Z,41.97
2022-08-19T06:00:36.884Z,47.33
2022-08-19T06:01:36.874Z,49.71
2022-08-19T06:02:36.875Z,47.50
2022-08-19T06:03:36.821Z,47.47
2022-08-19T06:04:36.830Z,46.84
2022-08-19T06:05:49.435Z,47.53
2022-08-19T06:06:38.822Z,47.57
2022-08-19T06:07:36.818Z,48.72
2022-08-19T06:08:36.985Z,46.70
2022-08-19T06:09:37.124Z,46.39
2022-08-19T06:10:36.807Z,44.85
2022-08-19T06:11:36.813Z,47.94
2022-08-19T06:12:36.785Z,48.21
2022-08-19T06:13:36.755Z,42.20
2022-08-19T06:14:40.319Z,49.53
2022-08-19T06:15:37.764Z,47.36
2022-08-19T06:16:36.755Z,44.03
2022-08-19T06:17:36.739Z,50.03
2022-08-19T06:18:36.726Z,51.27
2022-08-19T06:19:40.649Z,46.58
2022-08-19T06:20:55.144Z,44.15
2022-08-19T06:21:38.760Z,40.74
2022-08-19T06:22:36.705Z,47.58
2022-08-19T06:23:36.733Z,44.73
2022-08-19T06:24:36.728Z,39.77
2022-08-19T06:25:36.760Z,44.83
2022-08-19T06:26:36.737Z,45.84
2022-08-19T06:27:37.866Z,42.85
2022-08-19T06:28:37.665Z,42.31
2022-08-19T06:29:36.715Z,49.02
2022-08-19T06:30:36.692Z,45.59
2022-08-19T06:31:36.659Z,48.25
2022-08-19T06:32:39.887Z,48.84
2022-08-19T06:33:38.652Z,47.69
2022-08-19T06:34:36.626Z,45.24
2022-08-19T06:35:36.633Z,44.43
2022-08-19T06:36:36.628Z,45.85
2022-08-19T06:37:37.874Z,46.38
2022-08-19T06:38:36.631Z,44.62
2022-08-19T06:39:36.661Z,40.07
2022-08-19T06:40:36.668Z,38.09
2022-08-19T06:41:39.481Z,44.27
2022-08-19T06:42:37.658Z,47.55
2022-08-19T06:43:36.554Z,42.98
2022-08-19T06:44:42.849Z,44.29
2022-08-19T06:45:39.542Z,42.80
2022-08-19T06:46:36.564Z,38.95
2022-08-19T06:47:36.518Z,44.96
2022-08-19T06:48:39.428Z,48.23
2022-08-19T06:49:38.682Z,49.59
2022-08-19T06:50:36.837Z,48.86
2022-08-19T06:51:36.567Z,51.07
2022-08-19T06:52:38.461Z,45.19
2022-08-19T06:53:36.479Z,43.79
2022-08-19T06:54:46.064Z,49.85
2022-08-19T06:55:37.555Z,44.13
2022-08-19T06:56:36.501Z,48.58
2022-08-19T06:57:36.481Z,42.42
2022-08-19T06:58:36.466Z,46.62
2022-08-19T06:59:36.449Z,47.53
2022-08-19T07:00:36.626Z,41.99
2022-08-19T07:01:36.454Z,46.49
2022-08-19T07:02:36.416Z,43.42
2022-08-19T07:03:37.418Z,46.77
2022-08-19T07:04:36.472Z,44.65
2022-08-19T07:05:36.417Z,40.14
2022-08-19T07:06:44.426Z,46.97
2022-08-19T07:07:38.384Z,46.53
2022-08-19T07:09:36.368Z,42.38
2022-08-19T07:10:36.410Z,43.03
2022-08-19T07:11:36.396Z,39.23
2022-08-19T07:12:38.153Z,44.56
2022-08-19T07:13:36.612Z,45.00
2022-08-19T07:14:36.332Z,43.39
2022-08-19T07:15:36.339Z,43.10
2022-08-19T07:16:37.347Z,47.29
2022-08-19T07:17:36.359Z,47.04
2022-08-19T07:18:36.334Z,45.43
2022-08-19T07:19:36.381Z,42.35
2022-08-19T07:20:37.308Z,41.86
2022-08-19T07:21:37.536Z,46.02
2022-08-19T07:22:36.413Z,46.50
2022-08-19T07:24:36.294Z,46.13
2022-08-19T07:25:36.304Z,50.55
2022-08-19T07:26:36.254Z,49.31
2022-08-19T07:27:36.259Z,38.60
2022-08-19T07:28:37.292Z,48.67
2022-08-19T07:29:36.583Z,49.07
2022-08-19T07:30:36.256Z,43.55
2022-08-19T07:31:36.246Z,46.49
2022-08-19T07:32:36.488Z,42.55
2022-08-19T07:33:36.202Z,45.91
2022-08-19T07:34:36.218Z,44.52
2022-08-19T07:35:36.404Z,43.68
2022-08-19T07:36:36.164Z,48.86
2022-08-19T07:37:36.168Z,47.89
2022-08-19T07:38:36.172Z,48.87
2022-08-19T07:39:36.208Z,51.18
2022-08-19T07:40:36.156Z,48.92
2022-08-19T07:41:36.170Z,43.12
2022-08-19T07:42:36.128Z,46.11
2022-08-19T07:43:36.169Z,50.14
2022-08-19T07:44:36.172Z,45.40
2022-08-19T07:45:36.138Z,43.75
2022-08-19T07:46:36.246Z,47.03
2022-08-19T07:47:48.037Z,44.55
2022-08-19T07:48:37.070Z,46.02
2022-08-19T07:49:36.217Z,45.51
2022-08-19T07:50:36.068Z,43.03
2022-08-19T07:51:37.214Z,43.04
2022-08-19T07:52:36.072Z,48.08
2022-08-19T07:53:39.658Z,40.23
2022-08-19T07:54:37.066Z,46.75
2022-08-19T07:55:41.265Z,48.15
2022-08-19T07:56:37.034Z,44.23
2022-08-19T07:57:36.119Z,40.50
2022-08-19T07:58:36.025Z,49.23
2022-08-19T07:59:36.017Z,52.32
2022-08-19T08:00:36.007Z,52.19
2022-08-19T08:01:36.070Z,49.75
2022-08-19T08:02:37.037Z,45.58
2022-08-19T08:03:36.060Z,45.06
2022-08-19T08:04:35.985Z,45.12
2022-08-19T08:05:35.984Z,44.15
2022-08-19T08:06:36.081Z,47.94
2022-08-19T08:07:35.977Z,50.72
2022-08-19T08:08:35.954Z,53.04
2022-08-19T08:09:35.946Z,48.10
2022-08-19T08:10:35.985Z,45.69
2022-08-19T08:11:35.945Z,42.40
2022-08-19T08:12:36.022Z,43.32
2022-08-19T08:13:35.937Z,43.75
2022-08-19T08:14:35.963Z,45.15
2022-08-19T08:15:41.389Z,46.81
2022-08-19T08:16:39.656Z,47.53
2022-08-19T08:17:48.764Z,40.61
2022-08-19T08:18:36.865Z,44.78
2022-08-19T08:19:36.891Z,47.15
2022-08-19T08:20:35.891Z,46.26
2022-08-19T08:21:36.175Z,43.89
2022-08-19T08:22:35.966Z,44.06
2022-08-19T08:23:35.874Z,47.10
2022-08-19T08:24:35.847Z,46.92
2022-08-19T08:25:35.872Z,47.19
2022-08-19T08:26:35.908Z,48.37
2022-08-19T08:27:35.879Z,45.18
2022-08-19T08:28:35.863Z,47.00
2022-08-19T08:29:35.825Z,43.61
2022-08-19T08:30:35.811Z,42.97
2022-08-19T08:31:35.782Z,45.69
2022-08-19T08:32:35.821Z,41.48
2022-08-19T08:33:35.807Z,43.51
2022-08-19T08:34:35.776Z,43.00
2022-08-19T08:35:35.744Z,49.26
2022-08-19T08:36:35.789Z,47.23
2022-08-19T08:37:35.797Z,46.47
2022-08-19T08:38:42.703Z,46.92
2022-08-19T08:39:37.799Z,47.06
2022-08-19T08:40:35.789Z,43.25
2022-08-19T08:41:35.785Z,45.01
2022-08-19T08:42:35.719Z,47.06
2022-08-19T08:43:35.737Z,45.09
2022-08-19T08:44:35.706Z,44.00
2022-08-19T08:45:41.029Z,48.06
2022-08-19T08:46:36.724Z,47.58
2022-08-19T08:47:35.758Z,45.80
2022-08-19T08:48:35.664Z,53.09
2022-08-19T08:49:35.680Z,47.16
2022-08-19T08:50:35.682Z,42.85
2022-08-19T08:51:35.726Z,46.51
2022-08-19T08:52:35.685Z,46.26
2022-08-19T08:53:39.692Z,46.01
2022-08-19T08:54:37.724Z,43.97
2022-08-19T08:55:36.895Z,46.92
2022-08-19T08:56:35.619Z,43.62
2022-08-19T08:57:37.139Z,45.49
2022-08-19T08:58:36.616Z,45.70
2022-08-19T08:59:35.685Z,49.94
2022-08-19T09:00:35.681Z,50.31
2022-08-19T09:01:35.606Z,55.31
2022-08-19T09:02:35.579Z,53.69
2022-08-19T09:03:35.562Z,55.29
2022-08-19T09:04:35.630Z,50.64
2022-08-19T09:05:39.566Z,43.04
2022-08-19T09:06:36.588Z,44.26
2022-08-19T09:07:37.410Z,46.60
2022-08-19T09:08:35.540Z,43.44
2022-08-19T09:09:35.565Z,44.35
2022-08-19T09:10:35.542Z,47.42
2022-08-19T09:11:42.807Z,46.65
2022-08-19T09:12:36.668Z,43.39
2022-08-19T09:13:37.677Z,43.23
2022-08-19T09:14:52.049Z,40.95
2022-08-19T09:15:37.565Z,44.75
2022-08-19T09:16:35.489Z,49.89
2022-08-19T09:17:36.349Z,46.59
2022-08-19T09:18:35.463Z,44.03
2022-08-19T09:19:35.491Z,52.04
2022-08-19T09:20:35.922Z,47.41
2022-08-19T09:21:36.437Z,47.00
2022-08-19T09:22:35.464Z,45.86
2022-08-19T09:23:35.846Z,48.44
2022-08-19T09:24:35.441Z,45.31
2022-08-19T09:25:35.523Z,48.97
2022-08-19T09:26:51.782Z,42.67
2022-08-19T09:27:43.056Z,44.67
2022-08-19T09:28:36.416Z,44.42
2022-08-19T09:29:35.431Z,46.78
2022-08-19T09:30:35.436Z,41.39
2022-08-19T09:31:35.419Z,42.57
2022-08-19T09:32:35.376Z,42.85
2022-08-19T09:33:35.370Z,42.72
2022-08-19T09:34:37.801Z,46.99
2022-08-19T09:35:53.412Z,47.87
2022-08-19T09:36:36.346Z,44.87
2022-08-19T09:37:35.445Z,46.99
2022-08-19T09:38:35.358Z,47.80
2022-08-19T09:39:35.981Z,53.53
2022-08-19T09:40:38.203Z,45.98
2022-08-19T09:41:36.328Z,46.15
2022-08-19T09:42:35.549Z,53.30
2022-08-19T09:43:44.218Z,49.55
2022-08-19T09:44:36.378Z,46.94
2022-08-19T09:45:35.311Z,46.14
2022-08-19T09:46:35.319Z,47.97
2022-08-19T09:47:35.311Z,46.65
2022-08-19T09:48:35.287Z,47.05
2022-08-19T09:49:35.282Z,45.75
2022-08-19T09:50:35.256Z,46.27
2022-08-19T09:51:35.260Z,47.14
2022-08-19T09:52:35.258Z,47.29
2022-08-19T09:53:35.287Z,46.84
2022-08-19T09:54:35.248Z,48.21
2022-08-19T09:55:35.347Z,45.98
2022-08-19T09:56:36.059Z,49.72
2022-08-19T09:57:35.214Z,45.50
2022-08-19T09:58:35.209Z,47.55
2022-08-19T09:59:35.235Z,47.05
2022-08-19T10:00:35.289Z,50.52
2022-08-19T10:01:35.326Z,46.13
2022-08-19T10:02:35.208Z,45.22
2022-08-19T10:03:35.180Z,44.29
2022-08-19T10:04:35.247Z,44.04
2022-08-19T10:05:35.208Z,41.95
2022-08-19T10:06:46.266Z,40.74
2022-08-19T10:07:36.753Z,43.11
2022-08-19T10:08:35.158Z,46.15
2022-08-19T10:09:35.202Z,44.81
2022-08-19T10:10:35.132Z,47.08
2022-08-19T10:11:39.511Z,46.78
2022-08-19T10:12:36.166Z,51.95
2022-08-19T10:13:35.179Z,43.47
2022-08-19T10:14:35.138Z,40.47
2022-08-19T10:15:47.216Z,43.45
2022-08-19T10:16:39.457Z,46.77
2022-08-19T10:17:35.123Z,44.24
2022-08-19T10:18:35.113Z,43.82
2022-08-19T10:19:35.079Z,46.70
2022-08-19T10:20:35.078Z,42.53
2022-08-19T10:21:35.201Z,45.09
2022-08-19T10:22:35.112Z,48.27
2022-08-19T10:23:35.584Z,48.77
2022-08-19T10:24:35.165Z,42.12
2022-08-19T10:25:35.042Z,47.75
2022-08-19T10:26:35.176Z,48.63
2022-08-19T10:27:35.054Z,47.76
2022-08-19T10:28:35.025Z,44.68
2022-08-19T10:29:35.040Z,44.16
2022-08-19T10:30:35.000Z,48.44
2022-08-19T10:31:58.905Z,50.34
2022-08-19T10:32:36.005Z,42.84
2022-08-19T10:33:39.434Z,48.30
2022-08-19T10:34:36.065Z,50.43
2022-08-19T10:35:42.525Z,44.46
2022-08-19T10:36:36.096Z,41.30
2022-08-19T10:37:35.269Z,45.79
2022-08-19T10:38:34.982Z,45.66
2022-08-19T10:39:43.286Z,47.88
2022-08-19T10:40:35.999Z,46.25
2022-08-19T10:41:34.947Z,41.53
2022-08-19T10:42:34.945Z,44.46
2022-08-19T10:43:34.944Z,43.05
2022-08-19T10:44:34.969Z,45.38
2022-08-19T10:45:34.945Z,43.61
2022-08-19T10:46:34.910Z,44.74
2022-08-19T10:47:34.932Z,45.17
2022-08-19T10:48:34.874Z,44.29
2022-08-19T10:49:35.970Z,47.07
2022-08-19T10:50:34.892Z,47.68
2022-08-19T10:51:34.886Z,46.90
2022-08-19T10:52:34.906Z,43.20
2022-08-19T10:53:34.910Z,46.73
2022-08-19T10:54:34.897Z,52.28
2022-08-19T10:55:34.867Z,43.88
2022-08-19T10:56:34.851Z,44.64
2022-08-19T10:58:01.231Z,44.57
2022-08-19T10:58:36.850Z,46.76
2022-08-19T10:59:36.274Z,45.85
2022-08-19T11:00:35.856Z,44.25
2022-08-19T11:01:34.909Z,45.71
2022-08-19T11:02:34.832Z,44.86
2022-08-19T11:03:34.806Z,44.54
2022-08-19T11:04:35.752Z,46.46
2022-08-19T11:05:36.524Z,48.54
2022-08-19T11:06:35.814Z,45.89
2022-08-19T11:07:34.783Z,46.57
2022-08-19T11:08:34.781Z,46.34
2022-08-19T11:09:34.875Z,46.23
2022-08-19T11:10:34.838Z,45.66
2022-08-19T11:11:34.823Z,43.92
2022-08-19T11:12:34.796Z,44.83
2022-08-19T11:13:34.766Z,45.01
2022-08-19T11:14:34.763Z,44.36
2022-08-19T11:15:34.763Z,45.06
2022-08-19T11:16:34.731Z,47.75
2022-08-19T11:17:34.829Z,45.82
2022-08-19T11:18:34.725Z,43.52
2022-08-19T11:19:34.704Z,48.11
2022-08-19T11:20:34.692Z,48.65
2022-08-19T11:21:34.692Z,46.82
2022-08-19T11:22:39.071Z,48.82
2022-08-19T11:23:36.684Z,46.89
2022-08-19T11:24:34.700Z,43.84
2022-08-19T11:25:34.735Z,41.59
2022-08-19T11:26:34.699Z,46.76
2022-08-19T11:27:34.651Z,48.33
2022-08-19T11:28:34.678Z,49.07
2022-08-19T11:29:34.680Z,43.96
2022-08-19T11:30:34.742Z,47.38
2022-08-19T11:31:34.636Z,43.70
2022-08-19T11:32:34.648Z,43.52
2022-08-19T11:33:34.665Z,45.61
2022-08-19T11:34:34.669Z,46.39
2022-08-19T11:35:34.649Z,44.86
2022-08-19T11:36:34.630Z,50.29
2022-08-19T11:37:34.649Z,46.99
2022-08-19T11:38:34.667Z,46.72
2022-08-19T11:39:34.976Z,46.16
2022-08-19T11:40:35.577Z,48.14
2022-08-19T11:41:34.609Z,48.05
2022-08-19T11:42:34.598Z,46.71
2022-08-19T11:43:37.531Z,46.50
2022-08-19T11:44:36.892Z,50.27
2022-08-19T11:45:34.629Z,48.07
2022-08-19T11:46:34.603Z,48.77
2022-08-19T11:47:34.645Z,48.45
2022-08-19T11:48:34.554Z,47.64
2022-08-19T11:49:34.869Z,46.05
2022-08-19T11:50:34.534Z,45.22
2022-08-19T11:51:34.534Z,47.70
2022-08-19T11:52:34.554Z,47.34
2022-08-19T11:53:34.618Z,47.80
2022-08-19T11:54:34.592Z,44.60
2022-08-19T11:55:34.515Z,46.29
2022-08-19T11:56:35.512Z,44.51
2022-08-19T11:57:34.536Z,44.61
2022-08-19T11:58:34.484Z,47.82
2022-08-19T11:59:34.525Z,53.66
2022-08-19T12:00:34.473Z,52.80
2022-08-19T12:01:34.465Z,54.25
2022-08-19T12:02:34.485Z,55.14
2022-08-19T12:03:34.521Z,55.64
2022-08-19T12:04:34.486Z,51.66
2022-08-19T12:05:34.462Z,49.12
2022-08-19T12:06:34.429Z,47.95
2022-08-19T12:07:34.434Z,47.39
2022-08-19T12:08:34.436Z,48.10
2022-08-19T12:09:34.510Z,49.03
2022-08-19T12:10:34.454Z,47.92
2022-08-19T12:11:34.762Z,47.63
2022-08-19T12:12:34.414Z,47.77
2022-08-19T12:13:34.401Z,49.61
2022-08-19T12:14:34.530Z,47.74
2022-08-19T12:15:37.147Z,48.88
2022-08-19T12:16:34.404Z,48.26
2022-08-19T12:17:34.382Z,48.72
2022-08-19T12:18:34.357Z,48.54
2022-08-19T12:19:34.369Z,48.18
2022-08-19T12:20:35.513Z,49.06
2022-08-19T12:21:34.352Z,48.91
2022-08-19T12:22:34.376Z,49.13
2022-08-19T12:23:34.347Z,49.03
2022-08-19T12:24:34.309Z,51.17
2022-08-19T12:25:34.307Z,50.98
2022-08-19T12:26:34.336Z,49.79
2022-08-19T12:27:40.701Z,49.85
2022-08-19T12:28:35.349Z,49.61
2022-08-19T12:29:34.277Z,49.03
2022-08-19T12:30:34.276Z,47.09
2022-08-19T12:31:34.269Z,47.40
2022-08-19T12:32:34.300Z,47.33
2022-08-19T12:33:34.345Z,47.90
2022-08-19T12:34:34.318Z,51.74
2022-08-19T12:35:34.294Z,49.51
2022-08-19T12:36:34.291Z,49.03
2022-08-19T12:37:34.263Z,48.30
2022-08-19T12:38:34.255Z,46.52
2022-08-19T12:39:34.249Z,47.54
2022-08-19T12:40:34.232Z,46.78
2022-08-19T12:41:34.232Z,48.75
2022-08-19T12:42:34.241Z,50.67
2022-08-19T12:43:35.224Z,48.98
2022-08-19T12:44:34.206Z,49.13
2022-08-19T12:45:34.183Z,49.30
2022-08-19T12:46:34.249Z,47.94
2022-08-19T12:47:34.189Z,47.61
2022-08-19T12:48:35.054Z,47.76
2022-08-19T12:49:53.480Z,46.30
2022-08-19T12:50:35.237Z,46.68
2022-08-19T12:51:34.206Z,47.74
2022-08-19T12:52:34.182Z,47.95
2022-08-19T12:53:34.592Z,47.82
2022-08-19T12:54:34.172Z,47.55